Nazimovo, Russia
Current Conditions -  °F | °C
As of 7:30 PM on Sunday 21 Dec 2014 (Local Time) from UNKL Reporting Station
Broken Clouds Broken Clouds  
Wind Chill: 19°   Ceiling: 17000
Heat Index: 25°   Visibility: 6mi
Dew Point:   Wind: 4mph
Humidity: 46%   Direction: 210°SSW
Pressure: 30.12"   Gusts: NA
Location:  59.5°N, 91.02°E
Report Text: UNKL 211230Z 21002MPS 9999 SCT044 BKN170 M04/M14 Q1020 NOSIGRMK QFE739 29////65
Loading
Personal Weather Stations






























Interactive Weather Map New forecast layout! Learn more

10-Day Weather Forecast

Advertisements
Track Severe Weather on mobile